sensor_id;sensor_type;location;lat;lon;timestamp;P1;durP1;ratioP1;P2;durP2;ratioP2
23716;SDS011;22094;52.130;5.598;2022-09-13T00:00:39;14.07;;;12.57;;
23716;SDS011;22094;52.130;5.598;2022-09-13T00:03:05;18.40;;;13.82;;
23716;SDS011;22094;52.130;5.598;2022-09-13T00:05:32;15.23;;;13.63;;
23716;SDS011;22094;52.130;5.598;2022-09-13T00:07:58;14.85;;;13.15;;
23716;SDS011;22094;52.130;5.598;2022-09-13T00:10:24;16.98;;;13.30;;
23716;SDS011;22094;52.130;5.598;2022-09-13T00:12:50;14.75;;;13.00;;
23716;SDS011;22094;52.130;5.598;2022-09-13T00:15:16;14.70;;;13.07;;
23716;SDS011;22094;52.130;5.598;2022-09-13T00:17:42;18.00;;;13.45;;
23716;SDS011;22094;52.130;5.598;2022-09-13T00:20:08;16.08;;;12.98;;
23716;SDS011;22094;52.130;5.598;2022-09-13T00:22:34;17.95;;;13.40;;
23716;SDS011;22094;52.130;5.598;2022-09-13T00:25:00;18.27;;;13.50;;
23716;SDS011;22094;52.130;5.598;2022-09-13T00:27:27;14.70;;;13.20;;
23716;SDS011;22094;52.130;5.598;2022-09-13T00:29:52;16.55;;;13.20;;
23716;SDS011;22094;52.130;5.598;2022-09-13T00:32:18;16.23;;;13.05;;
23716;SDS011;22094;52.130;5.598;2022-09-13T00:34:44;14.35;;;12.85;;
23716;SDS011;22094;52.130;5.598;2022-09-13T00:37:09;14.10;;;12.52;;
23716;SDS011;22094;52.130;5.598;2022-09-13T00:39:35;16.30;;;13.07;;
23716;SDS011;22094;52.130;5.598;2022-09-13T00:42:00;15.18;;;13.52;;
23716;SDS011;22094;52.130;5.598;2022-09-13T00:52:51;15.05;;;13.52;;
23716;SDS011;22094;52.130;5.598;2022-09-13T00:55:24;16.15;;;13.70;;
23716;SDS011;22094;52.130;5.598;2022-09-13T00:57:54;15.30;;;13.70;;
23716;SDS011;22094;52.130;5.598;2022-09-13T01:00:24;16.05;;;13.75;;
23716;SDS011;22094;52.130;5.598;2022-09-13T01:02:57;15.32;;;13.20;;
23716;SDS011;22094;52.130;5.598;2022-09-13T01:05:31;17.15;;;13.85;;
23716;SDS011;22094;52.130;5.598;2022-09-13T01:08:00;15.25;;;13.50;;
23716;SDS011;22094;52.130;5.598;2022-09-13T01:10:27;15.65;;;13.95;;
23716;SDS011;22094;52.130;5.598;2022-09-13T01:12:58;19.65;;;14.70;;
23716;SDS011;22094;52.130;5.598;2022-09-13T01:15:35;17.40;;;14.30;;
23716;SDS011;22094;52.130;5.598;2022-09-13T01:18:00;17.27;;;14.75;;
23716;SDS011;22094;52.130;5.598;2022-09-13T01:20:30;15.50;;;13.88;;
23716;SDS011;22094;52.130;5.598;2022-09-13T01:23:29;17.67;;;15.05;;
23716;SDS011;22094;52.130;5.598;2022-09-13T01:26:10;17.80;;;15.27;;
23716;SDS011;22094;52.130;5.598;2022-09-13T01:31:27;19.70;;;15.80;;
23716;SDS011;22094;52.130;5.598;2022-09-13T01:34:16;16.58;;;14.88;;
23716;SDS011;22094;52.130;5.598;2022-09-13T01:37:02;16.13;;;14.50;;
23716;SDS011;22094;52.130;5.598;2022-09-13T01:39:55;17.27;;;15.40;;
23716;SDS011;22094;52.130;5.598;2022-09-13T01:45:32;19.98;;;16.52;;
23716;SDS011;22094;52.130;5.598;2022-09-13T01:53:50;19.08;;;16.90;;
23716;SDS011;22094;52.130;5.598;2022-09-13T01:56:47;18.65;;;16.40;;
23716;SDS011;22094;52.130;5.598;2022-09-13T01:59:23;18.92;;;16.83;;
23716;SDS011;22094;52.130;5.598;2022-09-13T02:02:14;20.80;;;16.35;;
23716;SDS011;22094;52.130;5.598;2022-09-13T02:04:45;21.52;;;17.58;;
23716;SDS011;22094;52.130;5.598;2022-09-13T02:07:23;19.90;;;16.85;;
23716;SDS011;22094;52.130;5.598;2022-09-13T02:09:56;19.42;;;16.63;;
23716;SDS011;22094;52.130;5.598;2022-09-13T02:12:27;19.90;;;17.52;;
23716;SDS011;22094;52.130;5.598;2022-09-13T02:15:03;21.20;;;18.05;;
23716;SDS011;22094;52.130;5.598;2022-09-13T02:17:38;19.58;;;16.85;;
23716;SDS011;22094;52.130;5.598;2022-09-13T02:20:19;20.83;;;17.30;;
23716;SDS011;22094;52.130;5.598;2022-09-13T02:22:48;20.33;;;17.63;;
23716;SDS011;22094;52.130;5.598;2022-09-13T02:25:18;19.77;;;17.02;;
23716;SDS011;22094;52.130;5.598;2022-09-13T02:27:47;21.55;;;17.65;;
23716;SDS011;22094;52.130;5.598;2022-09-13T02:30:15;19.50;;;16.58;;
23716;SDS011;22094;52.130;5.598;2022-09-13T02:32:48;21.90;;;18.50;;
23716;SDS011;22094;52.130;5.598;2022-09-13T02:35:32;20.27;;;17.40;;
23716;SDS011;22094;52.130;5.598;2022-09-13T02:38:09;19.17;;;16.42;;
23716;SDS011;22094;52.130;5.598;2022-09-13T02:40:47;19.40;;;17.30;;
23716;SDS011;22094;52.130;5.598;2022-09-13T02:43:36;23.70;;;18.88;;
23716;SDS011;22094;52.130;5.598;2022-09-13T02:48:48;22.80;;;18.02;;
23716;SDS011;22094;52.130;5.598;2022-09-13T02:54:22;21.13;;;17.02;;
23716;SDS011;22094;52.130;5.598;2022-09-13T02:57:10;21.83;;;17.92;;
23716;SDS011;22094;52.130;5.598;2022-09-13T02:59:42;22.67;;;18.60;;
23716;SDS011;22094;52.130;5.598;2022-09-13T03:02:12;19.63;;;17.52;;
23716;SDS011;22094;52.130;5.598;2022-09-13T03:04:40;19.55;;;16.73;;
23716;SDS011;22094;52.130;5.598;2022-09-13T03:07:12;20.38;;;18.15;;
23716;SDS011;22094;52.130;5.598;2022-09-13T03:09:41;20.02;;;17.70;;
23716;SDS011;22094;52.130;5.598;2022-09-13T03:15:20;23.08;;;18.98;;
23716;SDS011;22094;52.130;5.598;2022-09-13T03:26:11;24.77;;;18.77;;
23716;SDS011;22094;52.130;5.598;2022-09-13T03:28:50;25.35;;;20.60;;
23716;SDS011;22094;52.130;5.598;2022-09-13T03:31:41;25.45;;;20.58;;
23716;SDS011;22094;52.130;5.598;2022-09-13T03:37:05;25.73;;;20.65;;
23716;SDS011;22094;52.130;5.598;2022-09-13T03:39:46;25.45;;;20.85;;
23716;SDS011;22094;52.130;5.598;2022-09-13T03:42:27;25.02;;;20.55;;
23716;SDS011;22094;52.130;5.598;2022-09-13T03:44:58;24.85;;;20.38;;
23716;SDS011;22094;52.130;5.598;2022-09-13T03:47:27;24.63;;;20.27;;
23716;SDS011;22094;52.130;5.598;2022-09-13T03:49:56;22.40;;;19.95;;
23716;SDS011;22094;52.130;5.598;2022-09-13T03:52:23;27.10;;;20.08;;
23716;SDS011;22094;52.130;5.598;2022-09-13T03:54:49;28.92;;;21.23;;
23716;SDS011;22094;52.130;5.598;2022-09-13T03:57:19;24.95;;;20.77;;
23716;SDS011;22094;52.130;5.598;2022-09-13T03:59:46;27.15;;;19.92;;
23716;SDS011;22094;52.130;5.598;2022-09-13T04:02:17;25.17;;;20.52;;
23716;SDS011;22094;52.130;5.598;2022-09-13T04:04:44;29.27;;;21.33;;
23716;SDS011;22094;52.130;5.598;2022-09-13T04:07:11;30.77;;;22.08;;
23716;SDS011;22094;52.130;5.598;2022-09-13T04:09:38;27.60;;;20.92;;
23716;SDS011;22094;52.130;5.598;2022-09-13T04:12:04;23.23;;;19.48;;
23716;SDS011;22094;52.130;5.598;2022-09-13T04:14:30;27.33;;;21.00;;
23716;SDS011;22094;52.130;5.598;2022-09-13T04:16:56;27.20;;;20.90;;
23716;SDS011;22094;52.130;5.598;2022-09-13T04:19:22;26.00;;;19.35;;
23716;SDS011;22094;52.130;5.598;2022-09-13T04:21:49;23.27;;;19.33;;
23716;SDS011;22094;52.130;5.598;2022-09-13T04:24:17;26.80;;;19.73;;
23716;SDS011;22094;52.130;5.598;2022-09-13T04:26:43;23.42;;;20.73;;
23716;SDS011;22094;52.130;5.598;2022-09-13T04:29:12;24.67;;;20.13;;
23716;SDS011;22094;52.130;5.598;2022-09-13T04:31:38;26.00;;;20.15;;
23716;SDS011;22094;52.130;5.598;2022-09-13T04:34:03;26.75;;;21.38;;
23716;SDS011;22094;52.130;5.598;2022-09-13T04:36:30;31.25;;;22.40;;
23716;SDS011;22094;52.130;5.598;2022-09-13T04:38:56;28.45;;;21.70;;
23716;SDS011;22094;52.130;5.598;2022-09-13T04:41:22;24.85;;;21.08;;
23716;SDS011;22094;52.130;5.598;2022-09-13T04:43:48;27.85;;;21.63;;
23716;SDS011;22094;52.130;5.598;2022-09-13T04:46:14;29.52;;;22.63;;
23716;SDS011;22094;52.130;5.598;2022-09-13T04:48:40;27.70;;;21.50;;
23716;SDS011;22094;52.130;5.598;2022-09-13T04:51:06;32.40;;;23.10;;
23716;SDS011;22094;52.130;5.598;2022-09-13T04:53:32;27.00;;;22.50;;
23716;SDS011;22094;52.130;5.598;2022-09-13T04:56:01;26.27;;;22.52;;
23716;SDS011;22094;52.130;5.598;2022-09-13T04:58:27;28.83;;;22.92;;
23716;SDS011;22094;52.130;5.598;2022-09-13T05:00:53;31.98;;;22.90;;
23716;SDS011;22094;52.130;5.598;2022-09-13T05:03:25;31.65;;;22.55;;
23716;SDS011;22094;52.130;5.598;2022-09-13T05:05:54;27.30;;;22.67;;
23716;SDS011;22094;52.130;5.598;2022-09-13T05:08:19;29.65;;;22.92;;
23716;SDS011;22094;52.130;5.598;2022-09-13T05:10:45;30.45;;;23.63;;
23716;SDS011;22094;52.130;5.598;2022-09-13T05:13:11;30.20;;;23.90;;
23716;SDS011;22094;52.130;5.598;2022-09-13T05:15:36;32.35;;;23.58;;
23716;SDS011;22094;52.130;5.598;2022-09-13T05:18:02;28.90;;;22.92;;
23716;SDS011;22094;52.130;5.598;2022-09-13T05:20:27;27.40;;;22.33;;
23716;SDS011;22094;52.130;5.598;2022-09-13T05:22:54;27.83;;;22.35;;
23716;SDS011;22094;52.130;5.598;2022-09-13T05:25:19;27.55;;;21.67;;
23716;SDS011;22094;52.130;5.598;2022-09-13T05:27:45;29.85;;;23.50;;
23716;SDS011;22094;52.130;5.598;2022-09-13T05:30:11;26.90;;;21.17;;
23716;SDS011;22094;52.130;5.598;2022-09-13T05:32:36;29.42;;;23.75;;
23716;SDS011;22094;52.130;5.598;2022-09-13T05:35:02;28.42;;;23.17;;
23716;SDS011;22094;52.130;5.598;2022-09-13T05:37:28;32.63;;;23.90;;
23716;SDS011;22094;52.130;5.598;2022-09-13T05:39:53;31.08;;;22.38;;
23716;SDS011;22094;52.130;5.598;2022-09-13T05:42:19;32.05;;;25.02;;
23716;SDS011;22094;52.130;5.598;2022-09-13T05:44:44;29.48;;;23.48;;
23716;SDS011;22094;52.130;5.598;2022-09-13T05:47:11;36.42;;;23.77;;
23716;SDS011;22094;52.130;5.598;2022-09-13T05:49:37;33.17;;;23.45;;
23716;SDS011;22094;52.130;5.598;2022-09-13T05:52:03;31.27;;;24.48;;
23716;SDS011;22094;52.130;5.598;2022-09-13T05:54:28;29.13;;;23.02;;
23716;SDS011;22094;52.130;5.598;2022-09-13T05:56:55;34.35;;;24.13;;
23716;SDS011;22094;52.130;5.598;2022-09-13T05:59:21;32.22;;;23.60;;
23716;SDS011;22094;52.130;5.598;2022-09-13T06:01:47;31.60;;;23.25;;
23716;SDS011;22094;52.130;5.598;2022-09-13T06:04:13;33.75;;;22.85;;
23716;SDS011;22094;52.130;5.598;2022-09-13T06:06:38;32.00;;;23.42;;
23716;SDS011;22094;52.130;5.598;2022-09-13T06:09:04;32.58;;;23.33;;
23716;SDS011;22094;52.130;5.598;2022-09-13T06:11:32;31.83;;;22.02;;
23716;SDS011;22094;52.130;5.598;2022-09-13T06:13:58;30.98;;;23.27;;
23716;SDS011;22094;52.130;5.598;2022-09-13T06:16:23;33.38;;;22.85;;
23716;SDS011;22094;52.130;5.598;2022-09-13T06:18:49;35.60;;;24.17;;
23716;SDS011;22094;52.130;5.598;2022-09-13T06:21:16;30.55;;;24.58;;
23716;SDS011;22094;52.130;5.598;2022-09-13T06:23:44;33.08;;;23.40;;
23716;SDS011;22094;52.130;5.598;2022-09-13T06:26:12;30.23;;;22.50;;
23716;SDS011;22094;52.130;5.598;2022-09-13T06:28:39;29.40;;;23.00;;
23716;SDS011;22094;52.130;5.598;2022-09-13T06:31:09;28.95;;;22.58;;
23716;SDS011;22094;52.130;5.598;2022-09-13T06:33:37;29.85;;;21.75;;
23716;SDS011;22094;52.130;5.598;2022-09-13T06:36:11;31.70;;;22.15;;
23716;SDS011;22094;52.130;5.598;2022-09-13T06:38:38;27.45;;;20.67;;
23716;SDS011;22094;52.130;5.598;2022-09-13T06:41:08;34.55;;;22.13;;
23716;SDS011;22094;52.130;5.598;2022-09-13T06:43:35;27.40;;;21.77;;
23716;SDS011;22094;52.130;5.598;2022-09-13T06:46:02;26.85;;;21.00;;
23716;SDS011;22094;52.130;5.598;2022-09-13T06:48:30;30.13;;;20.67;;
23716;SDS011;22094;52.130;5.598;2022-09-13T06:51:01;28.90;;;20.50;;
23716;SDS011;22094;52.130;5.598;2022-09-13T06:53:29;33.17;;;21.65;;
23716;SDS011;22094;52.130;5.598;2022-09-13T06:56:02;30.38;;;22.45;;
23716;SDS011;22094;52.130;5.598;2022-09-13T06:58:29;34.08;;;21.75;;
23716;SDS011;22094;52.130;5.598;2022-09-13T07:01:09;31.55;;;21.58;;
23716;SDS011;22094;52.130;5.598;2022-09-13T07:03:44;38.20;;;23.67;;
23716;SDS011;22094;52.130;5.598;2022-09-13T07:06:15;37.67;;;23.48;;
23716;SDS011;22094;52.130;5.598;2022-09-13T07:08:43;35.75;;;23.67;;
23716;SDS011;22094;52.130;5.598;2022-09-13T07:11:10;33.00;;;23.75;;
23716;SDS011;22094;52.130;5.598;2022-09-13T07:13:36;36.85;;;25.98;;
23716;SDS011;22094;52.130;5.598;2022-09-13T07:16:03;37.60;;;23.92;;
23716;SDS011;22094;52.130;5.598;2022-09-13T07:18:30;35.70;;;24.75;;
23716;SDS011;22094;52.130;5.598;2022-09-13T07:21:02;32.58;;;23.90;;
23716;SDS011;22094;52.130;5.598;2022-09-13T07:23:32;33.25;;;23.95;;
23716;SDS011;22094;52.130;5.598;2022-09-13T07:25:59;30.92;;;22.85;;
23716;SDS011;22094;52.130;5.598;2022-09-13T07:28:30;30.33;;;21.92;;
23716;SDS011;22094;52.130;5.598;2022-09-13T07:33:31;31.85;;;22.08;;
23716;SDS011;22094;52.130;5.598;2022-09-13T07:35:57;28.63;;;21.65;;
23716;SDS011;22094;52.130;5.598;2022-09-13T07:38:25;30.90;;;21.58;;
23716;SDS011;22094;52.130;5.598;2022-09-13T07:40:54;33.65;;;22.85;;
23716;SDS011;22094;52.130;5.598;2022-09-13T07:43:22;28.90;;;22.17;;
23716;SDS011;22094;52.130;5.598;2022-09-13T07:45:55;30.42;;;22.23;;
23716;SDS011;22094;52.130;5.598;2022-09-13T07:48:23;29.70;;;22.00;;
23716;SDS011;22094;52.130;5.598;2022-09-13T07:51:04;31.00;;;21.88;;
23716;SDS011;22094;52.130;5.598;2022-09-13T07:53:31;28.95;;;21.60;;
23716;SDS011;22094;52.130;5.598;2022-09-13T07:56:02;30.73;;;21.33;;
23716;SDS011;22094;52.130;5.598;2022-09-13T07:58:28;29.15;;;20.52;;
23716;SDS011;22094;52.130;5.598;2022-09-13T08:00:55;24.98;;;17.52;;
23716;SDS011;22094;52.130;5.598;2022-09-13T08:03:58;29.00;;;17.23;;
23716;SDS011;22094;52.130;5.598;2022-09-13T08:06:25;22.30;;;14.82;;
23716;SDS011;22094;52.130;5.598;2022-09-13T08:08:51;20.58;;;14.38;;
23716;SDS011;22094;52.130;5.598;2022-09-13T08:11:19;18.20;;;12.68;;
23716;SDS011;22094;52.130;5.598;2022-09-13T08:13:47;15.55;;;12.75;;
23716;SDS011;22094;52.130;5.598;2022-09-13T08:16:13;20.27;;;11.43;;
23716;SDS011;22094;52.130;5.598;2022-09-13T08:18:46;17.48;;;11.25;;
23716;SDS011;22094;52.130;5.598;2022-09-13T08:21:13;11.95;;;9.65;;
23716;SDS011;22094;52.130;5.598;2022-09-13T08:23:39;13.07;;;10.20;;
23716;SDS011;22094;52.130;5.598;2022-09-13T08:26:05;15.82;;;10.40;;
23716;SDS011;22094;52.130;5.598;2022-09-13T08:28:32;17.73;;;10.88;;
23716;SDS011;22094;52.130;5.598;2022-09-13T08:31:01;11.48;;;9.77;;
23716;SDS011;22094;52.130;5.598;2022-09-13T08:33:34;12.80;;;9.90;;
23716;SDS011;22094;52.130;5.598;2022-09-13T08:36:00;12.95;;;9.75;;
23716;SDS011;22094;52.130;5.598;2022-09-13T08:38:27;14.82;;;10.15;;
23716;SDS011;22094;52.130;5.598;2022-09-13T08:40:57;16.38;;;10.45;;
23716;SDS011;22094;52.130;5.598;2022-09-13T08:43:29;13.45;;;9.85;;
23716;SDS011;22094;52.130;5.598;2022-09-13T08:48:45;10.70;;;9.07;;
23716;SDS011;22094;52.130;5.598;2022-09-13T08:51:25;10.82;;;9.70;;
23716;SDS011;22094;52.130;5.598;2022-09-13T08:54:00;12.88;;;9.75;;
23716;SDS011;22094;52.130;5.598;2022-09-13T09:02:20;17.23;;;8.43;;
23716;SDS011;22094;52.130;5.598;2022-09-13T09:07:49;9.55;;;5.53;;
23716;SDS011;22094;52.130;5.598;2022-09-13T09:10:38;9.32;;;5.60;;
23716;SDS011;22094;52.130;5.598;2022-09-13T09:13:08;9.65;;;5.40;;
23716;SDS011;22094;52.130;5.598;2022-09-13T09:16:06;6.60;;;5.55;;
23716;SDS011;22094;52.130;5.598;2022-09-13T09:18:38;6.88;;;5.53;;
23716;SDS011;22094;52.130;5.598;2022-09-13T09:21:09;5.18;;;4.40;;
23716;SDS011;22094;52.130;5.598;2022-09-13T09:29:04;6.50;;;3.30;;
23716;SDS011;22094;52.130;5.598;2022-09-13T09:31:43;3.92;;;3.22;;
23716;SDS011;22094;52.130;5.598;2022-09-13T09:34:25;3.97;;;3.10;;
23716;SDS011;22094;52.130;5.598;2022-09-13T09:39:32;5.40;;;3.30;;
23716;SDS011;22094;52.130;5.598;2022-09-13T09:42:02;6.03;;;3.17;;
23716;SDS011;22094;52.130;5.598;2022-09-13T09:44:29;8.10;;;2.97;;
23716;SDS011;22094;52.130;5.598;2022-09-13T09:47:11;6.10;;;2.95;;
23716;SDS011;22094;52.130;5.598;2022-09-13T09:49:43;4.65;;;2.75;;
23716;SDS011;22094;52.130;5.598;2022-09-13T09:52:30;4.85;;;2.58;;
23716;SDS011;22094;52.130;5.598;2022-09-13T09:55:38;6.28;;;2.53;;
23716;SDS011;22094;52.130;5.598;2022-09-13T09:57:56;8.73;;;2.20;;
23716;SDS011;22094;52.130;5.598;2022-09-13T10:00:25;4.35;;;2.25;;
23716;SDS011;22094;52.130;5.598;2022-09-13T10:02:58;3.28;;;1.80;;
23716;SDS011;22094;52.130;5.598;2022-09-13T10:05:27;5.50;;;2.10;;
23716;SDS011;22094;52.130;5.598;2022-09-13T10:07:57;6.47;;;2.00;;
23716;SDS011;22094;52.130;5.598;2022-09-13T10:10:34;3.20;;;1.50;;
23716;SDS011;22094;52.130;5.598;2022-09-13T10:13:06;4.63;;;1.85;;
23716;SDS011;22094;52.130;5.598;2022-09-13T10:15:54;3.15;;;1.63;;
23716;SDS011;22094;52.130;5.598;2022-09-13T10:18:33;2.72;;;2.00;;
23716;SDS011;22094;52.130;5.598;2022-09-13T10:21:04;2.33;;;1.80;;
23716;SDS011;22094;52.130;5.598;2022-09-13T10:23:42;5.32;;;2.10;;
23716;SDS011;22094;52.130;5.598;2022-09-13T10:28:53;3.63;;;1.50;;
23716;SDS011;22094;52.130;5.598;2022-09-13T10:31:34;2.67;;;1.48;;
23716;SDS011;22094;52.130;5.598;2022-09-13T10:34:03;4.25;;;1.50;;
23716;SDS011;22094;52.130;5.598;2022-09-13T10:36:43;2.72;;;1.58;;
23716;SDS011;22094;52.130;5.598;2022-09-13T10:39:18;3.53;;;1.75;;
23716;SDS011;22094;52.130;5.598;2022-09-13T10:47:03;8.73;;;1.90;;
23716;SDS011;22094;52.130;5.598;2022-09-13T10:57:46;6.82;;;1.90;;
23716;SDS011;22094;52.130;5.598;2022-09-13T11:00:13;3.92;;;1.95;;
23716;SDS011;22094;52.130;5.598;2022-09-13T11:11:01;8.20;;;2.00;;
23716;SDS011;22094;52.130;5.598;2022-09-13T11:16:06;1.95;;;1.20;;
23716;SDS011;22094;52.130;5.598;2022-09-13T11:21:25;3.13;;;1.30;;
23716;SDS011;22094;52.130;5.598;2022-09-13T11:26:33;5.65;;;1.50;;
23716;SDS011;22094;52.130;5.598;2022-09-13T11:40:34;1.42;;;1.23;;
23716;SDS011;22094;52.130;5.598;2022-09-13T11:51:11;3.15;;;1.45;;
23716;SDS011;22094;52.130;5.598;2022-09-13T11:56:37;4.40;;;1.52;;
23716;SDS011;22094;52.130;5.598;2022-09-13T12:01:40;6.00;;;1.90;;
23716;SDS011;22094;52.130;5.598;2022-09-13T12:04:12;4.88;;;1.80;;
23716;SDS011;22094;52.130;5.598;2022-09-13T12:06:42;8.38;;;1.98;;
23716;SDS011;22094;52.130;5.598;2022-09-13T12:09:13;5.35;;;1.88;;
23716;SDS011;22094;52.130;5.598;2022-09-13T12:11:42;6.32;;;2.00;;
23716;SDS011;22094;52.130;5.598;2022-09-13T12:14:25;3.95;;;1.80;;
23716;SDS011;22094;52.130;5.598;2022-09-13T12:16:57;1.90;;;1.20;;
23716;SDS011;22094;52.130;5.598;2022-09-13T12:19:43;6.72;;;1.58;;
23716;SDS011;22094;52.130;5.598;2022-09-13T12:22:13;5.85;;;1.70;;
23716;SDS011;22094;52.130;5.598;2022-09-13T12:24:41;5.72;;;2.00;;
23716;SDS011;22094;52.130;5.598;2022-09-13T12:29:54;5.40;;;1.45;;
23716;SDS011;22094;52.130;5.598;2022-09-13T12:32:20;2.67;;;1.10;;
23716;SDS011;22094;52.130;5.598;2022-09-13T12:34:56;3.50;;;1.45;;
23716;SDS011;22094;52.130;5.598;2022-09-13T12:51:13;1.80;;;1.40;;
23716;SDS011;22094;52.130;5.598;2022-09-13T12:57:14;2.60;;;1.27;;
23716;SDS011;22094;52.130;5.598;2022-09-13T12:59:57;3.67;;;1.40;;
23716;SDS011;22094;52.130;5.598;2022-09-13T13:02:44;3.58;;;1.63;;
23716;SDS011;22094;52.130;5.598;2022-09-13T13:05:35;2.17;;;1.15;;
23716;SDS011;22094;52.130;5.598;2022-09-13T13:08:17;3.13;;;1.27;;
23716;SDS011;22094;52.130;5.598;2022-09-13T13:11:00;3.88;;;1.27;;
23716;SDS011;22094;52.130;5.598;2022-09-13T13:13:43;2.60;;;1.13;;
23716;SDS011;22094;52.130;5.598;2022-09-13T13:16:25;2.55;;;1.20;;
23716;SDS011;22094;52.130;5.598;2022-09-13T13:19:00;3.50;;;1.52;;
23716;SDS011;22094;52.130;5.598;2022-09-13T13:39:35;2.97;;;1.40;;
23716;SDS011;22094;52.130;5.598;2022-09-13T13:49:49;1.88;;;1.23;;
23716;SDS011;22094;52.130;5.598;2022-09-13T14:02:37;4.30;;;1.10;;
23716;SDS011;22094;52.130;5.598;2022-09-13T14:11:27;4.50;;;1.30;;
23716;SDS011;22094;52.130;5.598;2022-09-13T14:14:21;2.60;;;1.00;;
23716;SDS011;22094;52.130;5.598;2022-09-13T14:19:39;2.53;;;1.00;;
23716;SDS011;22094;52.130;5.598;2022-09-13T14:22:13;1.83;;;0.90;;
23716;SDS011;22094;52.130;5.598;2022-09-13T14:24:41;9.68;;;1.50;;
23716;SDS011;22094;52.130;5.598;2022-09-13T14:27:12;4.03;;;1.10;;
23716;SDS011;22094;52.130;5.598;2022-09-13T14:29:43;2.88;;;0.85;;
23716;SDS011;22094;52.130;5.598;2022-09-13T14:32:11;3.55;;;1.17;;
23716;SDS011;22094;52.130;5.598;2022-09-13T14:34:48;7.20;;;1.30;;
23716;SDS011;22094;52.130;5.598;2022-09-13T14:37:19;2.40;;;1.08;;
23716;SDS011;22094;52.130;5.598;2022-09-13T14:39:55;5.88;;;1.05;;
23716;SDS011;22094;52.130;5.598;2022-09-13T14:42:22;2.65;;;1.23;;
23716;SDS011;22094;52.130;5.598;2022-09-13T14:44:48;3.20;;;1.00;;
23716;SDS011;22094;52.130;5.598;2022-09-13T14:47:23;4.47;;;1.10;;
23716;SDS011;22094;52.130;5.598;2022-09-13T14:49:56;4.85;;;1.30;;
23716;SDS011;22094;52.130;5.598;2022-09-13T14:52:27;3.83;;;1.10;;
23716;SDS011;22094;52.130;5.598;2022-09-13T14:54:59;4.10;;;0.90;;
23716;SDS011;22094;52.130;5.598;2022-09-13T14:57:30;4.05;;;1.10;;
23716;SDS011;22094;52.130;5.598;2022-09-13T15:00:14;6.25;;;1.20;;
23716;SDS011;22094;52.130;5.598;2022-09-13T15:02:47;1.45;;;0.85;;
23716;SDS011;22094;52.130;5.598;2022-09-13T15:05:15;3.50;;;1.10;;
23716;SDS011;22094;52.130;5.598;2022-09-13T15:07:41;3.50;;;0.80;;
23716;SDS011;22094;52.130;5.598;2022-09-13T15:17:51;2.25;;;1.00;;
23716;SDS011;22094;52.130;5.598;2022-09-13T15:23:20;3.65;;;1.13;;
23716;SDS011;22094;52.130;5.598;2022-09-13T15:25:51;2.90;;;0.93;;
23716;SDS011;22094;52.130;5.598;2022-09-13T15:28:20;4.10;;;1.00;;
23716;SDS011;22094;52.130;5.598;2022-09-13T15:31:04;1.88;;;0.73;;
23716;SDS011;22094;52.130;5.598;2022-09-13T15:33:31;6.05;;;1.00;;
23716;SDS011;22094;52.130;5.598;2022-09-13T15:42:17;2.72;;;1.10;;
23716;SDS011;22094;52.130;5.598;2022-09-13T15:44:36;4.82;;;1.00;;
23716;SDS011;22094;52.130;5.598;2022-09-13T15:47:02;4.55;;;1.10;;
23716;SDS011;22094;52.130;5.598;2022-09-13T15:49:33;5.18;;;1.10;;
23716;SDS011;22094;52.130;5.598;2022-09-13T15:52:00;4.32;;;0.90;;
23716;SDS011;22094;52.130;5.598;2022-09-13T15:54:31;3.58;;;1.10;;
23716;SDS011;22094;52.130;5.598;2022-09-13T15:57:02;6.00;;;1.05;;
23716;SDS011;22094;52.130;5.598;2022-09-13T15:59:31;7.55;;;0.90;;
23716;SDS011;22094;52.130;5.598;2022-09-13T16:01:57;3.38;;;1.00;;
23716;SDS011;22094;52.130;5.598;2022-09-13T16:04:24;4.97;;;1.10;;
23716;SDS011;22094;52.130;5.598;2022-09-13T16:06:50;6.43;;;1.10;;
23716;SDS011;22094;52.130;5.598;2022-09-13T16:09:17;4.15;;;1.05;;
23716;SDS011;22094;52.130;5.598;2022-09-13T16:11:48;5.07;;;1.08;;
23716;SDS011;22094;52.130;5.598;2022-09-13T16:14:15;6.03;;;1.17;;
23716;SDS011;22094;52.130;5.598;2022-09-13T16:16:41;6.57;;;1.40;;
23716;SDS011;22094;52.130;5.598;2022-09-13T16:19:16;3.85;;;1.02;;
23716;SDS011;22094;52.130;5.598;2022-09-13T16:21:44;7.93;;;1.00;;
23716;SDS011;22094;52.130;5.598;2022-09-13T16:24:11;5.38;;;1.08;;
23716;SDS011;22094;52.130;5.598;2022-09-13T16:26:36;3.00;;;0.90;;
23716;SDS011;22094;52.130;5.598;2022-09-13T16:29:03;3.97;;;0.80;;
23716;SDS011;22094;52.130;5.598;2022-09-13T16:31:29;4.50;;;0.82;;
23716;SDS011;22094;52.130;5.598;2022-09-13T16:33:54;3.22;;;0.95;;
23716;SDS011;22094;52.130;5.598;2022-09-13T16:36:20;3.70;;;0.70;;
23716;SDS011;22094;52.130;5.598;2022-09-13T16:38:46;2.65;;;0.98;;
23716;SDS011;22094;52.130;5.598;2022-09-13T16:41:12;4.82;;;1.00;;
23716;SDS011;22094;52.130;5.598;2022-09-13T16:43:38;2.97;;;1.00;;
23716;SDS011;22094;52.130;5.598;2022-09-13T16:46:05;2.58;;;0.82;;
23716;SDS011;22094;52.130;5.598;2022-09-13T16:48:31;3.78;;;0.90;;
23716;SDS011;22094;52.130;5.598;2022-09-13T16:51:02;4.80;;;0.90;;
23716;SDS011;22094;52.130;5.598;2022-09-13T16:53:32;5.53;;;1.30;;
23716;SDS011;22094;52.130;5.598;2022-09-13T16:56:12;3.80;;;1.55;;
23716;SDS011;22094;52.130;5.598;2022-09-13T16:58:41;5.70;;;1.10;;
23716;SDS011;22094;52.130;5.598;2022-09-13T17:01:09;4.32;;;1.10;;
23716;SDS011;22094;52.130;5.598;2022-09-13T17:03:36;4.93;;;0.93;;
23716;SDS011;22094;52.130;5.598;2022-09-13T17:06:04;3.92;;;0.90;;
23716;SDS011;22094;52.130;5.598;2022-09-13T17:08:34;4.25;;;1.08;;
23716;SDS011;22094;52.130;5.598;2022-09-13T17:11:05;4.75;;;0.80;;
23716;SDS011;22094;52.130;5.598;2022-09-13T17:13:31;6.25;;;1.08;;
23716;SDS011;22094;52.130;5.598;2022-09-13T17:15:57;3.40;;;0.88;;
23716;SDS011;22094;52.130;5.598;2022-09-13T17:18:23;3.78;;;1.08;;
23716;SDS011;22094;52.130;5.598;2022-09-13T17:20:49;2.78;;;0.82;;
23716;SDS011;22094;52.130;5.598;2022-09-13T17:23:15;2.47;;;0.85;;
23716;SDS011;22094;52.130;5.598;2022-09-13T17:25:41;5.28;;;0.80;;
23716;SDS011;22094;52.130;5.598;2022-09-13T17:28:10;6.15;;;1.20;;
23716;SDS011;22094;52.130;5.598;2022-09-13T17:30:37;6.28;;;1.05;;
23716;SDS011;22094;52.130;5.598;2022-09-13T17:33:03;5.22;;;0.85;;
23716;SDS011;22094;52.130;5.598;2022-09-13T17:35:31;4.38;;;0.90;;
23716;SDS011;22094;52.130;5.598;2022-09-13T17:37:58;4.60;;;0.82;;
23716;SDS011;22094;52.130;5.598;2022-09-13T17:40:24;7.82;;;1.35;;
23716;SDS011;22094;52.130;5.598;2022-09-13T17:42:50;5.80;;;1.20;;
23716;SDS011;22094;52.130;5.598;2022-09-13T17:45:16;5.75;;;1.10;;
23716;SDS011;22094;52.130;5.598;2022-09-13T17:47:41;5.45;;;1.00;;
23716;SDS011;22094;52.130;5.598;2022-09-13T17:50:07;5.53;;;1.08;;
23716;SDS011;22094;52.130;5.598;2022-09-13T17:52:33;6.88;;;1.02;;
23716;SDS011;22094;52.130;5.598;2022-09-13T17:54:58;6.60;;;1.20;;
23716;SDS011;22094;52.130;5.598;2022-09-13T17:57:24;3.05;;;0.85;;
23716;SDS011;22094;52.130;5.598;2022-09-13T17:59:50;5.50;;;1.00;;
23716;SDS011;22094;52.130;5.598;2022-09-13T18:02:17;6.35;;;1.10;;
23716;SDS011;22094;52.130;5.598;2022-09-13T18:04:43;8.75;;;1.40;;
23716;SDS011;22094;52.130;5.598;2022-09-13T18:07:08;4.97;;;0.95;;
23716;SDS011;22094;52.130;5.598;2022-09-13T18:09:34;5.43;;;1.10;;
23716;SDS011;22094;52.130;5.598;2022-09-13T18:12:00;3.05;;;0.88;;
23716;SDS011;22094;52.130;5.598;2022-09-13T18:14:25;5.15;;;1.10;;